Skip Navigation Links
NOAA logo - Click to go to the NOAA homepage
NOAA's National Weather Service
Alaska Aviation Weather Unit
  NWS logo - Click to go to the NWS homepage
Left Navbar Graphic     22 AKDT = 06 GMT

   
NOAA is celebrating 200 years of science, service, and stewardship. Visit the NOAA 200th celebration Web site to learn more.
USA.gov is the U.S. Government's official Web portal to all Federal, state and local government Web resources and services.
Facebook
NWS on Facebook

Important Change Regarding the AAWU Web Presence

 

Over the last several months, the AAWU has been working to navigate its webpages to a nationally supported server. Security, as well as other needs, have necessitated the change.  We have been given an extension for the site changeover while we diligently work at addressing feedback received. As of July 14, 2017, aawu.arh.noaa.gov will be discontinued. The new AAWU web address is weather.gov/aawu. It is now live and will run in-parallel with the old site until it is discontinued on July 14, 2017. Please continue to send any feedback or questions regarding the new webpages to nws.ar.aawu.webauthors@noaa.gov.  Thank you for your patience during this time of transition.
AAWU Home :: Display TAF Add Bookmark
TAF PAMC 260534Z 2606/2706 VRB06KT 6SM -RA BR VCSH SCT007 BKN015 OVC025
     FM260900 VRB06KT 6SM -SHRA BR BKN015 OVC025
     FM262100 VRB06KT P6SM VCSH SCT015 BKN025 OVC035=

METAR PAMC 260053Z 21004KT 10SM -RA BKN038 BKN047 OVC090 13/10 A2991 RMK AO2 RAB05 SLP133 P0002 T01280100= METAR PAMC 260153Z AUTO 19003KT 10SM -RA BKN020 OVC050 13/11 A2990 RMK AO2 SLP129 P0002 T01280106 TSNO= METAR PAMC 260253Z AUTO 15003KT 10SM -RA BKN022 BKN026 OVC031 12/11 A2989 RMK SLP126 P0004 60008 T01220106 57010 TSNO VIA AUTODIAL= PAMC 260351Z AUTO 14005KT 10SM -RA SCT016 OVC090 12/11 A2988= METAR PAMC 260353Z AUTO 15005KT 10SM -RA FEW016 OVC090 12/11 A2988 RMK AO2 SLP121 P0005 T01220111 TSNO= PAMC 260418Z AUTO 16005KT 10SM -RA FEW011 BKN018 OVC090 13/11 A2987= METAR PAMC 260453Z AUTO 15006KT 7SM -RA FEW007 BKN013 OVC018 13/12 A2987 RMK AO2 SLP118 P0003 T01280117 TSNO= PAMC 260528Z AUTO 16005KT 10SM -RA FEW008 SCT012 OVC055 13/12 A2987= PAMC 260541Z AUTO 15005KT 10SM -RA SCT009 BKN015 OVC055 13/12 A2986= PAMC 260548Z AUTO 15003KT 8SM -RA FEW009 BKN039 OVC055 13/12 A2986 RMK AO2 P0000 TSNO= METAR PAMC 260553Z AUTO 14004KT 4SM -RA BR FEW009 SCT015 OVC034 13/12 A2986 RMK AO2 SLP115 P0000 60016 T01280117 10133 20122 56005 TSNO= PAMC 260558Z AUTO 14004KT 2 1/2SM -RA BR SCT008 BKN019 OVC029 13/12 A2986= PAMC 260624Z AUTO 14005KT 1 1/2SM -RA BR BKN008 BKN017 OVC022 13/12 A2986=
 Alaska TAF Map

NOAA's National Weather Service
Alaska Aviation Weather Unit
6930 Sand Lake Road
Anchorage, AK 99502-1845
Disclaimer
Credits
Glossary
Privacy Policy
About Us
Career Opportunities
Contact AAWU Internet Services Site last modified: April, 17th 2012